Prague, Czech Republic

7:21 PM CEST on September 18, 2014 (GMT +0200)
Malvazinky/Kosire, Prague | Change Station
CLOSE
Current Station
Personal Weather Station
Location: Prague, HLAVNí MěSTO PRAHA
Elevation: 919 ft
Nearby Weather Stations

Elev 919 ft 50.07 °N, 14.38 °E | Updated 15 seconds ago

Clear
Clear
67.1 °F
Feels Like 67.1 °F
N
3.8
Wind Variable Wind from SE
Gusts 4.3 mph

Today
High -- | Low -- °F
--% Chance of Precip.
Yesterday
High -- | Low -- °F
Precip. -- in
6:42 AM 7:10 PM
Waning Crescent, 26% visible
Pressure 29.98 in
Visibility -9999.0 miles
Clouds
Dew Point 47 °F
Humidity 48%
Rainfall 0.00 in
Snow Depth Not available.
UV Not available.
Pollen Not available.
Air Quality Not available.
Flu Activity Not available.
METAR LKPR 181630Z 13008KT CAVOK 18/12 Q1015 NOSIG

More Conditions Fewer Conditions

Pressure 29.98 in
Visibility -9999.0 miles
Clouds
Dew Point 47 °F
Humidity 48%
Rainfall 0.00 in
Snow Depth Not available.
UV Not available.
Pollen Not available.
Air Quality Not available.
Flu Activity Not available.
METAR LKPR 181630Z 13008KT CAVOK 18/12 Q1015 NOSIG

More Conditions Fewer Conditions

10-Day Weather Forecast

Almanac

Astronomy

Sep. 18, 2014 Rise Set
Actual Time 6:42 AM CEST 7:10 PM CEST
Civil Twilight 6:10 AM CEST 7:42 PM CEST
Nautical Twilight 5:31 AM CEST 8:21 PM CEST
Astronomical Twilight 4:51 AM CEST 9:01 PM CEST
Moon 12:55 AM CEST 4:11 PM CEST
Length of Visible Light 13h 32m
Length of Day
12h 27m
Tomorrow will be 3m 42s shorter.
Waning Crescent, 26% of the Moon is Illuminated
Today
Waning Crescent
Sep 24
New
Oct 1
First Quarter
Oct 8
Full
Oct 15
Last Quarter

Today's Extremes

Country Highs Country Lows

Community

WunderPhotos

Upload Photos

1,754,411 photos uploaded!

Nearby

Snow Depth

Not available.

Earthquake Activity

City Distance Mag. Time & Date
No recent earthquake activity has been reported nearby.
Minimum magnitude displayed is 2.5.

Coastal Water Temperatures

Place Temperature
No Stations Reporting

Nearby Weather Stations